sensor_id;sensor_type;location;lat;lon;timestamp;pressure;altitude;pressure_sealevel;temperature;humidity
21395;BME280;10858;42.714;23.180;2023-04-07T00:02:08;94134.13;;;2.99;57.16
21395;BME280;10858;42.714;23.180;2023-04-07T00:04:34;94127.66;;;3.05;56.62
21395;BME280;10858;42.714;23.180;2023-04-07T00:07:01;94121.19;;;3.10;56.59
21395;BME280;10858;42.714;23.180;2023-04-07T00:09:27;94132.34;;;3.00;57.09
21395;BME280;10858;42.714;23.180;2023-04-07T00:11:53;94124.09;;;3.06;56.42
21395;BME280;10858;42.714;23.180;2023-04-07T00:14:19;94128.31;;;3.08;56.56
21395;BME280;10858;42.714;23.180;2023-04-07T00:16:45;94119.84;;;3.17;56.99
21395;BME280;10858;42.714;23.180;2023-04-07T00:19:12;94109.88;;;3.10;56.75
21395;BME280;10858;42.714;23.180;2023-04-07T00:21:38;94109.25;;;3.06;56.31
21395;BME280;10858;42.714;23.180;2023-04-07T00:24:04;94112.00;;;3.17;55.51
21395;BME280;10858;42.714;23.180;2023-04-07T00:26:30;94110.31;;;3.16;55.24
21395;BME280;10858;42.714;23.180;2023-04-07T00:28:58;94118.16;;;3.30;55.29
21395;BME280;10858;42.714;23.180;2023-04-07T00:31:24;94116.66;;;3.26;55.40
21395;BME280;10858;42.714;23.180;2023-04-07T00:33:51;94113.22;;;3.12;55.40
21395;BME280;10858;42.714;23.180;2023-04-07T00:36:17;94111.72;;;3.22;55.42
21395;BME280;10858;42.714;23.180;2023-04-07T00:38:43;94113.09;;;3.27;55.20
21395;BME280;10858;42.714;23.180;2023-04-07T00:41:09;94107.84;;;3.27;55.05
21395;BME280;10858;42.714;23.180;2023-04-07T00:43:36;94109.72;;;3.25;55.33
21395;BME280;10858;42.714;23.180;2023-04-07T00:46:02;94113.66;;;3.32;54.85
21395;BME280;10858;42.714;23.180;2023-04-07T00:48:28;94116.06;;;3.35;54.54
21395;BME280;10858;42.714;23.180;2023-04-07T00:50:55;94111.84;;;3.33;54.36
21395;BME280;10858;42.714;23.180;2023-04-07T00:53:22;94110.63;;;3.38;54.53
21395;BME280;10858;42.714;23.180;2023-04-07T00:55:48;94112.09;;;3.42;54.01
21395;BME280;10858;42.714;23.180;2023-04-07T00:58:15;94108.75;;;3.53;53.71
21395;BME280;10858;42.714;23.180;2023-04-07T01:00:48;94103.09;;;3.47;53.97
21395;BME280;10858;42.714;23.180;2023-04-07T01:03:29;94106.59;;;3.60;53.60
21395;BME280;10858;42.714;23.180;2023-04-07T01:06:01;94104.19;;;3.57;53.66
21395;BME280;10858;42.714;23.180;2023-04-07T01:11:38;94098.13;;;3.69;52.36
21395;BME280;10858;42.714;23.180;2023-04-07T01:14:10;94098.34;;;3.78;51.82
21395;BME280;10858;42.714;23.180;2023-04-07T01:16:51;94103.59;;;3.78;51.64
21395;BME280;10858;42.714;23.180;2023-04-07T01:19:39;94096.06;;;3.86;52.47
21395;BME280;10858;42.714;23.180;2023-04-07T01:22:16;94095.09;;;3.87;52.30
21395;BME280;10858;42.714;23.180;2023-04-07T01:30:09;94091.97;;;4.07;51.00
21395;BME280;10858;42.714;23.180;2023-04-07T01:32:38;94094.00;;;4.16;51.43
21395;BME280;10858;42.714;23.180;2023-04-07T01:35:09;94095.22;;;4.11;51.49
21395;BME280;10858;42.714;23.180;2023-04-07T01:37:36;94094.19;;;4.13;50.71
21395;BME280;10858;42.714;23.180;2023-04-07T01:40:04;94099.72;;;4.09;51.10
21395;BME280;10858;42.714;23.180;2023-04-07T01:42:34;94092.28;;;3.90;51.53
21395;BME280;10858;42.714;23.180;2023-04-07T01:45:02;94082.00;;;3.75;50.72
21395;BME280;10858;42.714;23.180;2023-04-07T01:47:29;94085.34;;;3.77;50.51
21395;BME280;10858;42.714;23.180;2023-04-07T01:50:00;94081.94;;;3.62;50.57
21395;BME280;10858;42.714;23.180;2023-04-07T01:52:31;94088.44;;;3.57;50.37
21395;BME280;10858;42.714;23.180;2023-04-07T01:54:58;94088.16;;;3.74;50.49
21395;BME280;10858;42.714;23.180;2023-04-07T01:57:24;94078.44;;;3.88;50.70
21395;BME280;10858;42.714;23.180;2023-04-07T01:59:51;94075.06;;;3.86;50.38
21395;BME280;10858;42.714;23.180;2023-04-07T02:02:17;94073.41;;;3.98;50.81
21395;BME280;10858;42.714;23.180;2023-04-07T02:04:59;94072.03;;;3.92;50.38
21395;BME280;10858;42.714;23.180;2023-04-07T02:07:51;94072.03;;;4.05;49.82
21395;BME280;10858;42.714;23.180;2023-04-07T02:10:20;94075.50;;;4.05;49.49
21395;BME280;10858;42.714;23.180;2023-04-07T02:12:48;94074.78;;;4.16;49.53
21395;BME280;10858;42.714;23.180;2023-04-07T02:15:15;94071.59;;;4.11;49.21
21395;BME280;10858;42.714;23.180;2023-04-07T02:17:45;94080.41;;;4.35;49.43
21395;BME280;10858;42.714;23.180;2023-04-07T02:20:13;94086.00;;;4.30;48.51
21395;BME280;10858;42.714;23.180;2023-04-07T02:22:40;94079.25;;;4.39;49.00
21395;BME280;10858;42.714;23.180;2023-04-07T02:25:27;94072.97;;;4.54;48.81
21395;BME280;10858;42.714;23.180;2023-04-07T02:27:55;94075.78;;;4.51;48.37
21395;BME280;10858;42.714;23.180;2023-04-07T02:30:22;94079.25;;;4.64;49.28
21395;BME280;10858;42.714;23.180;2023-04-07T02:32:48;94078.75;;;4.47;48.29
21395;BME280;10858;42.714;23.180;2023-04-07T02:35:15;94078.44;;;4.39;49.03
21395;BME280;10858;42.714;23.180;2023-04-07T02:37:43;94080.22;;;4.51;49.43
21395;BME280;10858;42.714;23.180;2023-04-07T02:40:10;94084.81;;;4.60;48.34
21395;BME280;10858;42.714;23.180;2023-04-07T02:42:36;94082.31;;;4.58;49.97
21395;BME280;10858;42.714;23.180;2023-04-07T02:45:03;94076.31;;;4.69;48.14
21395;BME280;10858;42.714;23.180;2023-04-07T02:47:31;94079.31;;;4.75;47.60
21395;BME280;10858;42.714;23.180;2023-04-07T02:49:57;94082.78;;;4.76;47.85
21395;BME280;10858;42.714;23.180;2023-04-07T02:52:23;94088.72;;;4.67;47.70
21395;BME280;10858;42.714;23.180;2023-04-07T02:54:50;94085.22;;;4.66;48.08
21395;BME280;10858;42.714;23.180;2023-04-07T02:57:16;94081.88;;;4.64;48.53
21395;BME280;10858;42.714;23.180;2023-04-07T02:59:42;94086.09;;;4.67;48.64
21395;BME280;10858;42.714;23.180;2023-04-07T03:02:09;94096.25;;;4.71;48.27
21395;BME280;10858;42.714;23.180;2023-04-07T03:04:35;94084.47;;;4.77;48.07
21395;BME280;10858;42.714;23.180;2023-04-07T03:07:01;94090.78;;;4.74;47.66
21395;BME280;10858;42.714;23.180;2023-04-07T03:09:28;94096.66;;;4.65;48.08
21395;BME280;10858;42.714;23.180;2023-04-07T03:11:54;94093.22;;;4.65;48.23
21395;BME280;10858;42.714;23.180;2023-04-07T03:14:20;94097.13;;;4.34;47.94
21395;BME280;10858;42.714;23.180;2023-04-07T03:16:46;94093.66;;;4.46;49.44
21395;BME280;10858;42.714;23.180;2023-04-07T03:19:13;94089.75;;;4.39;50.06
21395;BME280;10858;42.714;23.180;2023-04-07T03:21:39;94089.13;;;4.23;49.39
21395;BME280;10858;42.714;23.180;2023-04-07T03:24:06;94078.53;;;3.99;50.51
21395;BME280;10858;42.714;23.180;2023-04-07T03:26:32;94088.06;;;3.88;50.43
21395;BME280;10858;42.714;23.180;2023-04-07T03:28:59;94087.31;;;3.73;50.91
21395;BME280;10858;42.714;23.180;2023-04-07T03:31:25;94082.31;;;3.83;51.16
21395;BME280;10858;42.714;23.180;2023-04-07T03:33:51;94080.44;;;3.85;50.73
21395;BME280;10858;42.714;23.180;2023-04-07T03:36:17;94081.97;;;3.87;50.72
21395;BME280;10858;42.714;23.180;2023-04-07T03:38:45;94089.97;;;3.86;50.96
21395;BME280;10858;42.714;23.180;2023-04-07T03:41:12;94080.31;;;3.86;50.99
21395;BME280;10858;42.714;23.180;2023-04-07T03:43:38;94091.44;;;3.90;51.24
21395;BME280;10858;42.714;23.180;2023-04-07T03:46:04;94090.69;;;3.88;50.80
21395;BME280;10858;42.714;23.180;2023-04-07T03:48:30;94094.25;;;3.87;51.29
21395;BME280;10858;42.714;23.180;2023-04-07T03:50:57;94089.53;;;3.79;51.12
21395;BME280;10858;42.714;23.180;2023-04-07T03:53:23;94095.72;;;3.91;50.85
21395;BME280;10858;42.714;23.180;2023-04-07T03:55:49;94091.22;;;3.93;50.74
21395;BME280;10858;42.714;23.180;2023-04-07T03:58:15;94086.19;;;3.90;51.34
21395;BME280;10858;42.714;23.180;2023-04-07T04:00:42;94090.63;;;4.02;51.74
21395;BME280;10858;42.714;23.180;2023-04-07T04:03:08;94092.09;;;4.06;51.75
21395;BME280;10858;42.714;23.180;2023-04-07T04:05:34;94100.88;;;4.05;50.46
21395;BME280;10858;42.714;23.180;2023-04-07T04:08:01;94100.72;;;4.20;51.21
21395;BME280;10858;42.714;23.180;2023-04-07T04:10:27;94092.81;;;4.33;49.69
21395;BME280;10858;42.714;23.180;2023-04-07T04:12:53;94099.66;;;4.36;50.54
21395;BME280;10858;42.714;23.180;2023-04-07T04:15:19;94107.22;;;4.40;49.83
21395;BME280;10858;42.714;23.180;2023-04-07T04:17:45;94103.84;;;4.38;49.41
21395;BME280;10858;42.714;23.180;2023-04-07T04:20:12;94103.00;;;4.50;49.37
21395;BME280;10858;42.714;23.180;2023-04-07T04:22:38;94099.22;;;4.54;50.24
21395;BME280;10858;42.714;23.180;2023-04-07T04:25:04;94110.47;;;4.56;48.92
21395;BME280;10858;42.714;23.180;2023-04-07T04:27:31;94110.88;;;4.38;49.65
21395;BME280;10858;42.714;23.180;2023-04-07T04:29:57;94104.47;;;4.54;48.88
21395;BME280;10858;42.714;23.180;2023-04-07T04:32:23;94111.56;;;4.77;49.54
21395;BME280;10858;42.714;23.180;2023-04-07T04:34:49;94103.81;;;4.76;49.33
21395;BME280;10858;42.714;23.180;2023-04-07T04:37:15;94101.94;;;4.65;48.76
21395;BME280;10858;42.714;23.180;2023-04-07T04:39:41;94112.28;;;4.92;48.31
21395;BME280;10858;42.714;23.180;2023-04-07T04:42:08;94113.44;;;5.00;48.98
21395;BME280;10858;42.714;23.180;2023-04-07T04:44:34;94111.69;;;4.88;48.77
21395;BME280;10858;42.714;23.180;2023-04-07T04:47:00;94111.13;;;4.96;48.54
21395;BME280;10858;42.714;23.180;2023-04-07T04:49:27;94112.78;;;5.09;48.32
21395;BME280;10858;42.714;23.180;2023-04-07T04:51:53;94121.03;;;5.29;48.03
21395;BME280;10858;42.714;23.180;2023-04-07T04:54:19;94123.78;;;4.91;47.78
21395;BME280;10858;42.714;23.180;2023-04-07T04:56:45;94122.25;;;4.99;48.80
21395;BME280;10858;42.714;23.180;2023-04-07T04:59:11;94123.63;;;5.05;48.25
21395;BME280;10858;42.714;23.180;2023-04-07T05:01:37;94120.38;;;5.25;47.57
21395;BME280;10858;42.714;23.180;2023-04-07T05:04:03;94118.00;;;5.22;47.88
21395;BME280;10858;42.714;23.180;2023-04-07T05:06:30;94123.88;;;5.26;47.71
21395;BME280;10858;42.714;23.180;2023-04-07T05:08:57;94128.50;;;5.22;47.99
21395;BME280;10858;42.714;23.180;2023-04-07T05:11:23;94130.75;;;5.39;47.89
21395;BME280;10858;42.714;23.180;2023-04-07T05:13:49;94134.56;;;5.35;47.81
21395;BME280;10858;42.714;23.180;2023-04-07T05:16:16;94137.31;;;5.34;47.39
21395;BME280;10858;42.714;23.180;2023-04-07T05:18:42;94140.84;;;5.45;46.87
21395;BME280;10858;42.714;23.180;2023-04-07T05:21:08;94148.06;;;5.54;46.59
21395;BME280;10858;42.714;23.180;2023-04-07T05:23:35;94149.84;;;5.54;46.11
21395;BME280;10858;42.714;23.180;2023-04-07T05:26:01;94142.25;;;5.62;45.77
21395;BME280;10858;42.714;23.180;2023-04-07T05:28:27;94154.22;;;5.66;45.78
21395;BME280;10858;42.714;23.180;2023-04-07T05:30:54;94143.94;;;6.10;45.28
21395;BME280;10858;42.714;23.180;2023-04-07T05:33:20;94152.31;;;5.68;45.56
21395;BME280;10858;42.714;23.180;2023-04-07T05:35:46;94157.28;;;5.96;45.46
21395;BME280;10858;42.714;23.180;2023-04-07T05:38:13;94154.78;;;6.06;45.70
21395;BME280;10858;42.714;23.180;2023-04-07T05:40:41;94148.91;;;5.91;45.73
21395;BME280;10858;42.714;23.180;2023-04-07T05:43:07;94146.53;;;5.99;45.13
21395;BME280;10858;42.714;23.180;2023-04-07T05:45:34;94154.75;;;5.94;44.85
21395;BME280;10858;42.714;23.180;2023-04-07T05:48:01;94158.13;;;5.96;45.38
21395;BME280;10858;42.714;23.180;2023-04-07T05:50:27;94161.09;;;5.92;45.36
21395;BME280;10858;42.714;23.180;2023-04-07T05:52:53;94154.25;;;5.89;44.85
21395;BME280;10858;42.714;23.180;2023-04-07T05:55:20;94160.06;;;6.40;44.90
21395;BME280;10858;42.714;23.180;2023-04-07T05:57:46;94146.31;;;8.01;42.36
21395;BME280;10858;42.714;23.180;2023-04-07T06:00:13;94149.94;;;8.73;39.11
21395;BME280;10858;42.714;23.180;2023-04-07T06:02:39;94149.38;;;8.38;40.09
21395;BME280;10858;42.714;23.180;2023-04-07T06:05:06;94145.94;;;7.52;40.73
21395;BME280;10858;42.714;23.180;2023-04-07T06:07:32;94145.16;;;7.83;42.15
21395;BME280;10858;42.714;23.180;2023-04-07T06:09:59;94144.84;;;9.51;38.77
21395;BME280;10858;42.714;23.180;2023-04-07T06:12:25;94141.00;;;9.25;38.48
21395;BME280;10858;42.714;23.180;2023-04-07T06:14:53;94141.94;;;9.54;38.37
21395;BME280;10858;42.714;23.180;2023-04-07T06:17:19;94143.28;;;9.09;38.92
21395;BME280;10858;42.714;23.180;2023-04-07T06:19:46;94141.00;;;9.25;38.57
21395;BME280;10858;42.714;23.180;2023-04-07T06:22:12;94137.22;;;8.88;38.65
21395;BME280;10858;42.714;23.180;2023-04-07T06:24:38;94142.13;;;8.72;39.55
21395;BME280;10858;42.714;23.180;2023-04-07T06:27:05;94141.22;;;10.59;38.09
21395;BME280;10858;42.714;23.180;2023-04-07T06:29:32;94141.06;;;10.60;36.50
21395;BME280;10858;42.714;23.180;2023-04-07T06:31:59;94146.31;;;10.98;36.72
21395;BME280;10858;42.714;23.180;2023-04-07T06:34:25;94148.00;;;9.94;37.34
21395;BME280;10858;42.714;23.180;2023-04-07T06:36:52;94140.88;;;9.76;36.81
21395;BME280;10858;42.714;23.180;2023-04-07T06:39:18;94146.44;;;8.52;39.34
21395;BME280;10858;42.714;23.180;2023-04-07T06:41:44;94147.97;;;8.34;39.70
21395;BME280;10858;42.714;23.180;2023-04-07T06:44:12;94147.03;;;8.55;39.25
21395;BME280;10858;42.714;23.180;2023-04-07T06:46:38;94143.47;;;8.25;39.53
21395;BME280;10858;42.714;23.180;2023-04-07T06:49:04;94149.09;;;8.31;39.90
21395;BME280;10858;42.714;23.180;2023-04-07T06:51:31;94147.00;;;8.97;39.20
21395;BME280;10858;42.714;23.180;2023-04-07T06:53:57;94150.88;;;9.23;38.71
21395;BME280;10858;42.714;23.180;2023-04-07T06:56:23;94156.53;;;9.09;38.63
21395;BME280;10858;42.714;23.180;2023-04-07T06:58:49;94147.47;;;8.40;39.86
21395;BME280;10858;42.714;23.180;2023-04-07T07:01:16;94162.56;;;8.49;38.99
21395;BME280;10858;42.714;23.180;2023-04-07T07:03:42;94151.72;;;8.93;40.33
21395;BME280;10858;42.714;23.180;2023-04-07T07:06:08;94154.59;;;9.11;37.98
21395;BME280;10858;42.714;23.180;2023-04-07T07:08:35;94160.41;;;8.84;38.82
21395;BME280;10858;42.714;23.180;2023-04-07T07:11:02;94163.00;;;8.33;38.61
21395;BME280;10858;42.714;23.180;2023-04-07T07:13:28;94173.78;;;8.62;38.87
21395;BME280;10858;42.714;23.180;2023-04-07T07:15:54;94164.63;;;9.17;38.30
21395;BME280;10858;42.714;23.180;2023-04-07T07:18:21;94168.63;;;8.81;39.19
21395;BME280;10858;42.714;23.180;2023-04-07T07:20:47;94170.72;;;9.08;37.91
21395;BME280;10858;42.714;23.180;2023-04-07T07:23:13;94174.63;;;8.83;37.77
21395;BME280;10858;42.714;23.180;2023-04-07T07:25:40;94171.34;;;9.21;38.37
21395;BME280;10858;42.714;23.180;2023-04-07T07:28:06;94169.47;;;9.42;36.42
21395;BME280;10858;42.714;23.180;2023-04-07T07:30:34;94169.97;;;9.66;36.80
21395;BME280;10858;42.714;23.180;2023-04-07T07:33:00;94180.84;;;10.12;36.89
21395;BME280;10858;42.714;23.180;2023-04-07T07:35:26;94174.09;;;9.89;37.04
21395;BME280;10858;42.714;23.180;2023-04-07T07:37:52;94175.19;;;9.77;37.56
21395;BME280;10858;42.714;23.180;2023-04-07T07:40:19;94180.19;;;9.80;36.43
21395;BME280;10858;42.714;23.180;2023-04-07T07:42:46;94180.75;;;10.33;36.64
21395;BME280;10858;42.714;23.180;2023-04-07T07:45:13;94190.91;;;9.69;35.98
21395;BME280;10858;42.714;23.180;2023-04-07T07:47:39;94190.13;;;9.48;36.65
21395;BME280;10858;42.714;23.180;2023-04-07T07:50:06;94191.81;;;9.49;36.54
21395;BME280;10858;42.714;23.180;2023-04-07T07:52:32;94180.81;;;9.54;36.72
21395;BME280;10858;42.714;23.180;2023-04-07T07:54:58;94182.97;;;9.09;37.85
21395;BME280;10858;42.714;23.180;2023-04-07T07:57:24;94197.34;;;8.86;37.95
21395;BME280;10858;42.714;23.180;2023-04-07T07:59:51;94191.47;;;9.33;38.24
21395;BME280;10858;42.714;23.180;2023-04-07T08:02:18;94198.69;;;9.31;38.26
21395;BME280;10858;42.714;23.180;2023-04-07T08:04:44;94199.84;;;10.17;36.41
21395;BME280;10858;42.714;23.180;2023-04-07T08:07:10;94189.25;;;9.38;37.37
21395;BME280;10858;42.714;23.180;2023-04-07T08:09:37;94189.31;;;10.06;37.27
21395;BME280;10858;42.714;23.180;2023-04-07T08:12:03;94188.06;;;10.01;36.31
21395;BME280;10858;42.714;23.180;2023-04-07T08:14:29;94210.84;;;9.33;37.10
21395;BME280;10858;42.714;23.180;2023-04-07T08:16:55;94197.81;;;9.21;37.84
21395;BME280;10858;42.714;23.180;2023-04-07T08:19:22;94194.34;;;10.00;38.41
21395;BME280;10858;42.714;23.180;2023-04-07T08:21:48;94199.28;;;10.43;35.44
21395;BME280;10858;42.714;23.180;2023-04-07T08:24:15;94188.97;;;10.30;37.18
21395;BME280;10858;42.714;23.180;2023-04-07T08:26:41;94202.22;;;10.97;34.90
21395;BME280;10858;42.714;23.180;2023-04-07T08:29:07;94195.81;;;9.83;36.87
21395;BME280;10858;42.714;23.180;2023-04-07T08:31:34;94198.44;;;10.33;35.98
21395;BME280;10858;42.714;23.180;2023-04-07T08:34:00;94201.13;;;10.90;35.23
21395;BME280;10858;42.714;23.180;2023-04-07T08:36:26;94192.38;;;12.00;36.49
21395;BME280;10858;42.714;23.180;2023-04-07T08:38:53;94185.53;;;12.77;33.13
21395;BME280;10858;42.714;23.180;2023-04-07T08:41:36;94181.78;;;12.88;32.92
21395;BME280;10858;42.714;23.180;2023-04-07T08:44:03;94185.72;;;13.19;33.55
21395;BME280;10858;42.714;23.180;2023-04-07T08:46:33;94189.00;;;13.30;31.05
21395;BME280;10858;42.714;23.180;2023-04-07T08:49:00;94187.03;;;12.27;32.85
21395;BME280;10858;42.714;23.180;2023-04-07T08:51:31;94184.09;;;12.47;32.67
21395;BME280;10858;42.714;23.180;2023-04-07T08:54:10;94186.06;;;12.63;34.24
21395;BME280;10858;42.714;23.180;2023-04-07T08:56:41;94189.81;;;12.52;31.85
21395;BME280;10858;42.714;23.180;2023-04-07T08:59:09;94192.22;;;12.81;32.64
21395;BME280;10858;42.714;23.180;2023-04-07T09:01:36;94192.63;;;12.68;33.18
21395;BME280;10858;42.714;23.180;2023-04-07T09:04:07;94193.56;;;14.55;31.40
21395;BME280;10858;42.714;23.180;2023-04-07T09:06:35;94188.22;;;14.55;30.18
21395;BME280;10858;42.714;23.180;2023-04-07T09:09:02;94182.94;;;14.21;30.36
21395;BME280;10858;42.714;23.180;2023-04-07T09:11:29;94187.19;;;13.13;31.14
21395;BME280;10858;42.714;23.180;2023-04-07T09:13:56;94190.84;;;12.77;35.42
21395;BME280;10858;42.714;23.180;2023-04-07T09:16:22;94194.19;;;12.79;33.63
21395;BME280;10858;42.714;23.180;2023-04-07T09:18:52;94193.34;;;11.98;35.75
21395;BME280;10858;42.714;23.180;2023-04-07T09:21:18;94187.63;;;11.76;33.12
21395;BME280;10858;42.714;23.180;2023-04-07T09:23:45;94192.47;;;11.80;34.21
21395;BME280;10858;42.714;23.180;2023-04-07T09:26:19;94192.38;;;11.72;34.33
21395;BME280;10858;42.714;23.180;2023-04-07T09:28:52;94196.16;;;11.97;33.38
21395;BME280;10858;42.714;23.180;2023-04-07T09:31:19;94204.22;;;11.41;35.34
21395;BME280;10858;42.714;23.180;2023-04-07T09:33:49;94203.44;;;10.16;36.59
21395;BME280;10858;42.714;23.180;2023-04-07T09:36:16;94204.50;;;9.95;37.40
21395;BME280;10858;42.714;23.180;2023-04-07T09:38:44;94210.91;;;9.53;37.00
21395;BME280;10858;42.714;23.180;2023-04-07T09:41:15;94207.94;;;9.46;38.05
21395;BME280;10858;42.714;23.180;2023-04-07T09:43:45;94208.94;;;9.85;38.03
21395;BME280;10858;42.714;23.180;2023-04-07T09:46:15;94211.75;;;10.02;38.09
21395;BME280;10858;42.714;23.180;2023-04-07T09:48:43;94202.66;;;10.64;35.65
21395;BME280;10858;42.714;23.180;2023-04-07T09:51:12;94204.41;;;11.11;34.82
21395;BME280;10858;42.714;23.180;2023-04-07T09:53:47;94203.50;;;10.55;36.62
21395;BME280;10858;42.714;23.180;2023-04-07T09:56:17;94211.59;;;10.63;36.35
21395;BME280;10858;42.714;23.180;2023-04-07T09:58:48;94208.09;;;10.91;36.56
21395;BME280;10858;42.714;23.180;2023-04-07T10:01:17;94207.69;;;10.86;35.93
21395;BME280;10858;42.714;23.180;2023-04-07T10:03:44;94209.09;;;11.46;35.41
21395;BME280;10858;42.714;23.180;2023-04-07T10:06:12;94213.97;;;11.50;34.92
21395;BME280;10858;42.714;23.180;2023-04-07T10:08:40;94216.34;;;10.88;36.48
21395;BME280;10858;42.714;23.180;2023-04-07T10:11:08;94203.94;;;11.35;36.84
21395;BME280;10858;42.714;23.180;2023-04-07T10:13:36;94218.53;;;11.11;36.11
21395;BME280;10858;42.714;23.180;2023-04-07T10:16:05;94213.38;;;11.10;35.10
21395;BME280;10858;42.714;23.180;2023-04-07T10:18:34;94216.22;;;11.45;37.42
21395;BME280;10858;42.714;23.180;2023-04-07T10:21:02;94219.13;;;10.58;39.72
21395;BME280;10858;42.714;23.180;2023-04-07T10:23:47;94217.53;;;11.12;37.96
21395;BME280;10858;42.714;23.180;2023-04-07T10:26:17;94221.22;;;10.83;39.36
21395;BME280;10858;42.714;23.180;2023-04-07T10:28:47;94219.66;;;11.09;38.51
21395;BME280;10858;42.714;23.180;2023-04-07T10:31:17;94219.91;;;11.25;39.10
21395;BME280;10858;42.714;23.180;2023-04-07T10:33:48;94226.38;;;10.75;39.18
21395;BME280;10858;42.714;23.180;2023-04-07T10:36:18;94214.84;;;11.41;39.03
21395;BME280;10858;42.714;23.180;2023-04-07T10:41:40;94222.94;;;11.40;39.30
21395;BME280;10858;42.714;23.180;2023-04-07T10:44:43;94224.56;;;11.69;36.59
21395;BME280;10858;42.714;23.180;2023-04-07T10:49:25;94215.94;;;11.85;37.54
21395;BME280;10858;42.714;23.180;2023-04-07T10:54:37;94216.63;;;11.87;37.98
21395;BME280;10858;42.714;23.180;2023-04-07T10:57:07;94220.22;;;12.23;35.88
21395;BME280;10858;42.714;23.180;2023-04-07T10:59:36;94216.88;;;12.21;38.28
21395;BME280;10858;42.714;23.180;2023-04-07T11:04:44;94216.09;;;12.11;37.47
21395;BME280;10858;42.714;23.180;2023-04-07T11:07:12;94224.25;;;11.63;37.44
21395;BME280;10858;42.714;23.180;2023-04-07T11:09:41;94214.09;;;11.95;38.32
21395;BME280;10858;42.714;23.180;2023-04-07T11:12:08;94220.50;;;12.02;37.53
21395;BME280;10858;42.714;23.180;2023-04-07T11:14:47;94219.84;;;12.18;37.35
21395;BME280;10858;42.714;23.180;2023-04-07T11:17:16;94216.91;;;11.93;36.79
21395;BME280;10858;42.714;23.180;2023-04-07T11:19:54;94227.66;;;12.64;36.14
21395;BME280;10858;42.714;23.180;2023-04-07T11:22:21;94227.59;;;12.73;35.19
21395;BME280;10858;42.714;23.180;2023-04-07T11:24:47;94226.13;;;12.44;36.16
21395;BME280;10858;42.714;23.180;2023-04-07T11:27:14;94225.38;;;12.51;38.27
21395;BME280;10858;42.714;23.180;2023-04-07T11:29:40;94228.06;;;12.24;36.85
21395;BME280;10858;42.714;23.180;2023-04-07T11:32:06;94233.31;;;12.07;38.60
21395;BME280;10858;42.714;23.180;2023-04-07T11:34:34;94234.28;;;12.60;36.19
21395;BME280;10858;42.714;23.180;2023-04-07T11:39:58;94231.72;;;11.96;38.68
21395;BME280;10858;42.714;23.180;2023-04-07T11:42:34;94234.47;;;12.49;38.31
21395;BME280;10858;42.714;23.180;2023-04-07T11:45:01;94227.00;;;12.35;37.89
21395;BME280;10858;42.714;23.180;2023-04-07T11:47:38;94229.34;;;13.00;35.76
21395;BME280;10858;42.714;23.180;2023-04-07T11:50:05;94233.81;;;13.17;35.89
21395;BME280;10858;42.714;23.180;2023-04-07T11:52:43;94228.50;;;13.00;37.89
21395;BME280;10858;42.714;23.180;2023-04-07T11:55:20;94223.66;;;11.88;37.68
21395;BME280;10858;42.714;23.180;2023-04-07T11:57:47;94230.66;;;11.33;39.25
21395;BME280;10858;42.714;23.180;2023-04-07T12:00:16;94228.28;;;11.76;38.88
21395;BME280;10858;42.714;23.180;2023-04-07T12:02:43;94220.44;;;11.38;38.76
21395;BME280;10858;42.714;23.180;2023-04-07T12:05:09;94220.88;;;11.34;39.35
21395;BME280;10858;42.714;23.180;2023-04-07T12:07:37;94226.66;;;11.10;40.69
21395;BME280;10858;42.714;23.180;2023-04-07T12:10:24;94221.31;;;11.20;40.26
21395;BME280;10858;42.714;23.180;2023-04-07T12:12:53;94215.81;;;12.14;38.87
21395;BME280;10858;42.714;23.180;2023-04-07T12:15:21;94223.53;;;12.07;38.32
21395;BME280;10858;42.714;23.180;2023-04-07T12:17:50;94225.44;;;12.15;38.00
21395;BME280;10858;42.714;23.180;2023-04-07T12:20:16;94226.03;;;12.36;37.64
21395;BME280;10858;42.714;23.180;2023-04-07T12:22:42;94228.09;;;12.42;38.06
21395;BME280;10858;42.714;23.180;2023-04-07T12:25:09;94234.38;;;12.23;38.11
21395;BME280;10858;42.714;23.180;2023-04-07T12:27:35;94226.72;;;12.38;40.61
21395;BME280;10858;42.714;23.180;2023-04-07T12:30:01;94219.16;;;11.88;38.68
21395;BME280;10858;42.714;23.180;2023-04-07T12:32:27;94227.47;;;11.66;39.09
21395;BME280;10858;42.714;23.180;2023-04-07T12:34:53;94225.59;;;12.13;39.35
21395;BME280;10858;42.714;23.180;2023-04-07T12:37:19;94229.25;;;12.57;38.23
21395;BME280;10858;42.714;23.180;2023-04-07T12:39:46;94227.06;;;12.52;37.61
21395;BME280;10858;42.714;23.180;2023-04-07T12:42:12;94219.13;;;12.43;37.78
21395;BME280;10858;42.714;23.180;2023-04-07T12:44:39;94223.28;;;12.01;39.04
21395;BME280;10858;42.714;23.180;2023-04-07T12:47:06;94222.97;;;12.31;39.19
21395;BME280;10858;42.714;23.180;2023-04-07T12:49:32;94234.72;;;11.83;38.92
21395;BME280;10858;42.714;23.180;2023-04-07T12:51:58;94218.63;;;12.12;38.30
21395;BME280;10858;42.714;23.180;2023-04-07T12:54:24;94221.22;;;11.94;39.02
21395;BME280;10858;42.714;23.180;2023-04-07T12:56:51;94225.94;;;11.73;40.40
21395;BME280;10858;42.714;23.180;2023-04-07T12:59:17;94224.34;;;11.44;39.71
21395;BME280;10858;42.714;23.180;2023-04-07T13:01:43;94225.78;;;11.75;39.42
21395;BME280;10858;42.714;23.180;2023-04-07T13:04:10;94221.13;;;11.40;40.16
21395;BME280;10858;42.714;23.180;2023-04-07T13:06:36;94227.53;;;10.82;41.96
21395;BME280;10858;42.714;23.180;2023-04-07T13:09:03;94224.13;;;11.18;41.75
21395;BME280;10858;42.714;23.180;2023-04-07T13:11:29;94227.25;;;11.50;41.26
21395;BME280;10858;42.714;23.180;2023-04-07T13:13:55;94219.56;;;11.47;40.45
21395;BME280;10858;42.714;23.180;2023-04-07T13:16:21;94225.16;;;10.60;42.42
21395;BME280;10858;42.714;23.180;2023-04-07T13:18:47;94226.91;;;10.40;42.79
21395;BME280;10858;42.714;23.180;2023-04-07T13:21:14;94219.97;;;10.68;43.28